createdAt,value
2023-05-18T00:00:10.298Z,99.90
2023-05-18T00:02:37.034Z,99.90
2023-05-18T00:05:04.041Z,99.90
2023-05-18T00:07:33.254Z,99.90
2023-05-18T00:10:01.027Z,99.90
2023-05-18T00:12:27.213Z,99.90
2023-05-18T00:14:53.572Z,99.90
2023-05-18T00:17:21.050Z,99.90
2023-05-18T00:19:49.742Z,99.90
2023-05-18T00:22:18.225Z,99.90
2023-05-18T00:24:45.777Z,99.90
2023-05-18T00:27:12.042Z,99.90
2023-05-18T00:29:38.214Z,99.90
2023-05-18T00:32:04.805Z,99.90
2023-05-18T00:34:31.691Z,99.90
2023-05-18T00:36:57.892Z,99.90
2023-05-18T00:39:24.334Z,99.90
2023-05-18T00:41:50.904Z,99.90
2023-05-18T00:44:17.080Z,99.90
2023-05-18T00:46:43.873Z,99.90
2023-05-18T00:49:10.926Z,99.90
2023-05-18T00:51:37.323Z,99.90
2023-05-18T00:54:04.073Z,99.90
2023-05-18T00:56:33.399Z,99.90
2023-05-18T00:59:04.126Z,99.90
2023-05-18T01:01:33.989Z,99.90
2023-05-18T01:04:05.691Z,99.90
2023-05-18T01:06:35.283Z,99.90
2023-05-18T01:09:03.424Z,99.90
2023-05-18T01:11:57.704Z,99.90
2023-05-18T01:14:36.641Z,99.90
2023-05-18T01:17:12.435Z,99.90
2023-05-18T01:20:38.421Z,99.90
2023-05-18T01:23:45.421Z,99.90
2023-05-18T01:26:28.935Z,99.90
2023-05-18T01:28:59.549Z,99.90
2023-05-18T01:31:27.062Z,99.90
2023-05-18T01:33:53.422Z,99.90
2023-05-18T01:36:19.676Z,99.90
2023-05-18T01:38:45.967Z,99.90
2023-05-18T01:41:18.415Z,99.90
2023-05-18T01:48:13.725Z,99.90
2023-05-18T01:50:40.914Z,99.90
2023-05-18T01:54:16.172Z,99.90
2023-05-18T01:56:42.647Z,99.90
2023-05-18T01:59:09.146Z,99.90
2023-05-18T02:01:35.383Z,99.90
2023-05-18T02:04:02.138Z,99.90
2023-05-18T02:06:29.432Z,99.90
2023-05-18T02:08:55.763Z,99.90
2023-05-18T02:11:22.024Z,99.90
2023-05-18T02:13:48.289Z,99.90
2023-05-18T02:16:14.534Z,99.90
2023-05-18T02:18:40.778Z,99.90
2023-05-18T02:21:09.345Z,99.90
2023-05-18T02:23:35.724Z,99.90
2023-05-18T02:26:02.321Z,99.90
2023-05-18T02:28:28.743Z,99.90
2023-05-18T02:31:03.350Z,99.90
2023-05-18T02:33:35.668Z,99.90
2023-05-18T02:36:02.971Z,99.90
2023-05-18T02:38:29.615Z,99.90
2023-05-18T02:40:55.842Z,99.90
2023-05-18T02:43:22.116Z,99.90
2023-05-18T02:45:48.324Z,99.90
2023-05-18T02:48:14.865Z,99.90
2023-05-18T02:50:41.702Z,99.90
2023-05-18T02:53:08.131Z,99.90
2023-05-18T02:55:34.310Z,99.90
2023-05-18T02:58:01.756Z,99.90
2023-05-18T03:00:30.068Z,99.90
2023-05-18T03:02:57.186Z,99.90
2023-05-18T03:05:23.760Z,99.90
2023-05-18T03:07:51.801Z,99.90
2023-05-18T03:10:18.919Z,99.90
2023-05-18T03:12:45.305Z,99.90
2023-05-18T03:15:13.158Z,99.90
2023-05-18T03:17:42.615Z,99.90
2023-05-18T03:20:10.716Z,99.90
2023-05-18T03:22:40.385Z,99.90
2023-05-18T03:25:07.367Z,99.90
2023-05-18T03:27:33.627Z,99.90
2023-05-18T03:30:00.263Z,99.90
2023-05-18T03:32:27.701Z,99.90
2023-05-18T03:34:54.605Z,99.90
2023-05-18T03:37:20.925Z,99.90
2023-05-18T03:39:47.224Z,99.90
2023-05-18T03:42:13.364Z,99.90
2023-05-18T03:44:39.840Z,99.90
2023-05-18T03:47:07.353Z,99.90
2023-05-18T03:49:34.043Z,99.90
2023-05-18T03:52:00.349Z,99.90
2023-05-18T03:54:26.574Z,99.90
2023-05-18T03:56:52.737Z,99.90
2023-05-18T03:59:18.930Z,99.90
2023-05-18T04:01:45.110Z,99.90
2023-05-18T04:04:17.331Z,99.90
2023-05-18T04:06:46.262Z,99.90
2023-05-18T04:09:16.885Z,99.90
2023-05-18T04:11:43.593Z,99.90
2023-05-18T04:14:11.014Z,99.90
2023-05-18T04:16:37.268Z,99.90
2023-05-18T04:19:08.031Z,99.90
2023-05-18T04:21:35.739Z,99.90
2023-05-18T04:24:04.834Z,99.90
2023-05-18T04:26:35.800Z,99.90
2023-05-18T04:29:02.605Z,99.90
2023-05-18T04:31:29.261Z,99.90
2023-05-18T04:33:56.777Z,99.90
2023-05-18T04:36:24.993Z,99.90
2023-05-18T04:38:58.074Z,99.90
2023-05-18T04:41:25.149Z,99.90
2023-05-18T04:43:52.946Z,99.90
2023-05-18T04:46:21.613Z,99.90
2023-05-18T04:48:52.513Z,99.90
2023-05-18T04:51:21.034Z,99.90
2023-05-18T04:53:49.685Z,99.80
2023-05-18T04:56:19.979Z,99.90
2023-05-18T04:58:47.538Z,99.90
2023-05-18T05:01:17.082Z,99.90
2023-05-18T05:03:43.953Z,99.40
2023-05-18T05:06:10.871Z,99.20
2023-05-18T05:08:37.383Z,98.60
2023-05-18T05:11:03.850Z,97.80
2023-05-18T05:13:30.137Z,97.60
2023-05-18T05:15:56.424Z,98.30
2023-05-18T05:18:22.709Z,96.90
2023-05-18T05:20:50.018Z,97.50
2023-05-18T05:23:16.362Z,96.70
2023-05-18T05:25:42.851Z,96.90
2023-05-18T05:28:09.147Z,95.80
2023-05-18T05:30:35.629Z,96.90
2023-05-18T05:33:01.977Z,96.00
2023-05-18T05:35:30.452Z,95.70
2023-05-18T05:37:58.488Z,96.10
2023-05-18T05:40:25.045Z,95.90
2023-05-18T05:42:51.264Z,94.10
2023-05-18T05:45:17.539Z,94.70
2023-05-18T05:47:43.708Z,95.90
2023-05-18T05:50:10.159Z,95.50
2023-05-18T05:52:36.348Z,94.90
2023-05-18T05:55:02.779Z,94.40
2023-05-18T05:57:29.173Z,94.20
2023-05-18T05:59:55.361Z,92.10
2023-05-18T06:02:21.613Z,92.90
2023-05-18T06:04:47.806Z,94.00
2023-05-18T06:07:13.978Z,92.60
2023-05-18T06:09:40.213Z,92.60
2023-05-18T06:12:07.493Z,93.00
2023-05-18T06:14:33.729Z,92.20
2023-05-18T06:17:00.258Z,93.10
2023-05-18T06:19:26.786Z,92.50
2023-05-18T06:21:52.973Z,92.20
2023-05-18T06:24:19.190Z,91.80
2023-05-18T06:26:45.686Z,91.00
2023-05-18T06:29:13.527Z,91.90
2023-05-18T06:31:39.946Z,91.60
2023-05-18T06:34:06.333Z,90.80
2023-05-18T06:36:32.503Z,89.50
2023-05-18T06:38:58.748Z,90.00
2023-05-18T06:41:24.995Z,91.30
2023-05-18T06:43:51.383Z,90.10
2023-05-18T06:46:21.914Z,90.10
2023-05-18T06:48:48.474Z,91.10
2023-05-18T06:51:15.596Z,88.70
2023-05-18T06:53:42.257Z,89.60
2023-05-18T06:56:10.950Z,90.00
2023-05-18T06:58:37.553Z,89.40
2023-05-18T07:01:03.793Z,88.30
2023-05-18T07:03:30.206Z,89.60
2023-05-18T07:05:56.807Z,89.40
2023-05-18T07:08:24.804Z,87.90
2023-05-18T07:10:51.430Z,87.40
2023-05-18T07:13:18.779Z,87.90
2023-05-18T07:15:45.089Z,86.60
2023-05-18T07:18:11.422Z,88.00
2023-05-18T07:20:37.708Z,88.50
2023-05-18T07:23:03.940Z,86.60
2023-05-18T07:25:30.630Z,86.00
2023-05-18T07:27:56.968Z,85.70
2023-05-18T07:30:23.598Z,86.70
2023-05-18T07:32:50.707Z,87.40
2023-05-18T07:35:21.465Z,84.50
2023-05-18T07:37:47.872Z,85.50
2023-05-18T07:40:14.112Z,84.20
2023-05-18T07:42:40.943Z,86.10
2023-05-18T07:45:08.615Z,84.10
2023-05-18T07:47:35.059Z,82.70
2023-05-18T07:50:01.403Z,84.90
2023-05-18T07:52:28.077Z,84.50
2023-05-18T07:54:55.042Z,82.00
2023-05-18T07:57:21.273Z,80.70
2023-05-18T07:59:47.585Z,81.40
2023-05-18T08:02:15.856Z,77.60
2023-05-18T08:04:42.551Z,79.80
2023-05-18T08:07:09.979Z,79.90
2023-05-18T08:09:36.354Z,77.70
2023-05-18T08:12:03.059Z,78.90
2023-05-18T08:14:29.273Z,79.50
2023-05-18T08:16:55.584Z,75.30
2023-05-18T08:19:22.279Z,75.10
2023-05-18T08:21:48.849Z,65.10
2023-05-18T08:24:15.671Z,67.30
2023-05-18T08:26:41.854Z,63.10
2023-05-18T08:29:11.073Z,64.10
2023-05-18T08:31:38.052Z,67.50
2023-05-18T08:34:05.409Z,66.50
2023-05-18T08:36:32.861Z,68.10
2023-05-18T08:38:59.739Z,65.90
2023-05-18T08:41:30.658Z,65.00
2023-05-18T08:44:04.175Z,62.30
2023-05-18T08:46:41.940Z,60.80
2023-05-18T08:49:09.662Z,64.20
2023-05-18T08:51:36.535Z,65.40
2023-05-18T08:54:05.549Z,63.40
2023-05-18T08:56:35.043Z,62.10
2023-05-18T08:59:04.564Z,68.20
2023-05-18T09:01:31.906Z,65.50
2023-05-18T09:03:58.280Z,66.60
2023-05-18T09:06:24.737Z,69.80
2023-05-18T09:08:56.430Z,67.90
2023-05-18T09:11:23.285Z,63.80
2023-05-18T09:13:52.150Z,68.50
2023-05-18T09:16:18.801Z,65.00
2023-05-18T09:18:45.579Z,64.80
2023-05-18T09:21:11.817Z,63.80
2023-05-18T09:23:40.928Z,66.60
2023-05-18T09:26:09.504Z,66.70
2023-05-18T09:28:37.328Z,66.80
2023-05-18T09:31:04.706Z,66.50
2023-05-18T09:36:25.734Z,67.00
2023-05-18T09:38:52.180Z,66.50
2023-05-18T09:41:18.953Z,62.60
2023-05-18T09:43:47.233Z,66.50
2023-05-18T09:46:14.005Z,65.90
2023-05-18T09:48:47.351Z,63.80
2023-05-18T09:51:16.075Z,66.40
2023-05-18T09:54:07.980Z,64.50
2023-05-18T09:56:37.085Z,64.00
2023-05-18T09:59:11.083Z,60.40
2023-05-18T10:01:37.781Z,61.70
2023-05-18T10:04:04.597Z,60.90
2023-05-18T10:06:31.696Z,60.80
2023-05-18T10:08:58.677Z,61.30
2023-05-18T10:11:27.240Z,59.00
2023-05-18T10:13:55.421Z,61.30
2023-05-18T10:16:23.315Z,59.40
2023-05-18T10:18:49.639Z,55.50
2023-05-18T10:21:15.899Z,55.50
2023-05-18T10:23:42.113Z,56.70
2023-05-18T10:26:09.362Z,53.80
2023-05-18T10:28:42.382Z,57.60
2023-05-18T10:31:08.656Z,57.30
2023-05-18T10:33:36.376Z,56.70
2023-05-18T10:36:07.097Z,59.10
2023-05-18T10:38:33.976Z,59.70
2023-05-18T10:41:00.636Z,59.40
2023-05-18T10:43:27.396Z,55.30
2023-05-18T10:45:55.433Z,54.20
2023-05-18T10:48:22.699Z,59.70
2023-05-18T10:50:50.377Z,55.20
2023-05-18T10:53:26.655Z,54.50
2023-05-18T10:55:53.242Z,54.50
2023-05-18T10:58:20.670Z,54.80
2023-05-18T11:00:49.574Z,53.70
2023-05-18T11:03:16.161Z,55.90
2023-05-18T11:05:42.661Z,54.80
2023-05-18T11:08:09.148Z,55.50
2023-05-18T11:10:40.307Z,53.90
2023-05-18T11:13:07.164Z,60.40
2023-05-18T11:19:06.696Z,54.90
2023-05-18T11:21:54.449Z,51.20
2023-05-18T11:24:25.934Z,50.60
2023-05-18T11:26:53.890Z,49.10
2023-05-18T11:29:41.582Z,53.60
2023-05-18T11:32:29.856Z,56.00
2023-05-18T11:34:56.532Z,48.70
2023-05-18T11:38:54.015Z,51.40
2023-05-18T11:41:47.062Z,54.00
2023-05-18T11:44:17.788Z,52.50
2023-05-18T11:47:46.356Z,51.40
2023-05-18T11:50:12.769Z,56.90
2023-05-18T11:52:51.278Z,51.60
2023-05-18T11:55:18.888Z,51.60
2023-05-18T11:57:47.523Z,49.90
2023-05-18T12:00:15.607Z,54.70
2023-05-18T12:02:43.824Z,50.00
2023-05-18T12:05:10.537Z,53.80
2023-05-18T12:07:36.821Z,51.80
2023-05-18T12:10:16.473Z,54.70
2023-05-18T12:12:42.905Z,51.60
2023-05-18T12:15:10.683Z,51.40
2023-05-18T12:17:43.721Z,47.70
2023-05-18T12:20:11.570Z,48.70
2023-05-18T12:22:41.665Z,43.30
2023-05-18T12:25:08.318Z,44.90
2023-05-18T12:27:43.278Z,46.90
2023-05-18T12:30:16.298Z,52.70
2023-05-18T12:32:47.360Z,48.30
2023-05-18T12:35:13.776Z,46.10
2023-05-18T12:37:45.275Z,47.50
2023-05-18T12:40:13.413Z,46.40
2023-05-18T12:42:39.805Z,44.90
2023-05-18T12:45:09.506Z,44.60
2023-05-18T12:47:41.812Z,46.50
2023-05-18T12:50:08.833Z,49.20
2023-05-18T12:52:35.071Z,44.70
2023-05-18T12:55:02.621Z,47.70
2023-05-18T12:57:30.106Z,48.20
2023-05-18T13:00:09.578Z,47.60
2023-05-18T13:02:36.762Z,45.00
2023-05-18T13:05:08.116Z,45.00
2023-05-18T13:07:39.011Z,50.50
2023-05-18T13:10:09.953Z,46.50
2023-05-18T13:12:50.769Z,47.80
2023-05-18T13:15:21.977Z,47.40
2023-05-18T13:17:58.749Z,49.10
2023-05-18T13:21:25.890Z,51.70
2023-05-18T13:23:52.760Z,47.00
2023-05-18T13:26:23.313Z,49.20
2023-05-18T13:28:51.280Z,45.00
2023-05-18T13:31:18.455Z,48.30
2023-05-18T13:33:45.930Z,48.40
2023-05-18T13:36:12.352Z,46.40
2023-05-18T13:38:39.003Z,48.10
2023-05-18T13:41:05.452Z,50.00
2023-05-18T13:43:32.614Z,47.20
2023-05-18T13:45:58.861Z,47.30
2023-05-18T13:48:28.032Z,45.30
2023-05-18T13:50:55.309Z,46.30
2023-05-18T13:53:21.601Z,46.90
2023-05-18T13:55:48.206Z,45.40
2023-05-18T13:58:14.428Z,50.90
2023-05-18T14:00:41.314Z,45.50
2023-05-18T14:03:07.841Z,44.70
2023-05-18T14:05:34.811Z,48.50
2023-05-18T14:08:01.422Z,46.50
2023-05-18T14:10:27.657Z,47.00
2023-05-18T14:12:54.171Z,45.70
2023-05-18T14:15:21.214Z,47.20
2023-05-18T14:17:47.611Z,48.40
2023-05-18T14:20:13.977Z,49.70
2023-05-18T14:22:40.300Z,48.70
2023-05-18T14:25:07.757Z,47.20
2023-05-18T14:27:33.951Z,52.00
2023-05-18T14:30:00.593Z,50.70
2023-05-18T14:32:26.917Z,49.40
2023-05-18T14:34:55.766Z,46.30
2023-05-18T14:37:22.698Z,48.50
2023-05-18T14:39:48.995Z,52.00
2023-05-18T14:42:15.751Z,46.40
2023-05-18T14:44:42.019Z,44.80
2023-05-18T14:47:09.618Z,48.40
2023-05-18T14:49:36.533Z,48.50
2023-05-18T14:52:03.033Z,51.10
2023-05-18T14:54:30.583Z,50.10
2023-05-18T14:56:57.016Z,46.40
2023-05-18T14:59:23.241Z,48.70
2023-05-18T15:01:49.573Z,49.30
2023-05-18T15:04:16.768Z,50.00
2023-05-18T15:06:43.219Z,49.60
2023-05-18T15:09:11.488Z,49.20
2023-05-18T15:11:38.178Z,50.70
2023-05-18T15:14:04.510Z,48.90
2023-05-18T15:16:32.363Z,48.60
2023-05-18T15:18:58.801Z,47.70
2023-05-18T15:21:25.208Z,47.60
2023-05-18T15:23:52.912Z,51.30
2023-05-18T15:26:19.178Z,50.60
2023-05-18T15:28:46.475Z,53.90
2023-05-18T15:31:12.805Z,51.90
2023-05-18T15:33:41.712Z,51.50
2023-05-18T15:36:08.537Z,50.10
2023-05-18T15:38:35.155Z,52.80
2023-05-18T15:41:01.380Z,53.70
2023-05-18T15:43:29.679Z,55.50
2023-05-18T15:45:56.424Z,55.40
2023-05-18T15:48:22.722Z,54.10
2023-05-18T15:50:49.062Z,57.20
2023-05-18T15:53:15.502Z,57.50
2023-05-18T15:55:41.820Z,57.00
2023-05-18T15:58:08.136Z,56.10
2023-05-18T16:00:34.663Z,58.50
2023-05-18T16:03:01.205Z,57.30
2023-05-18T16:05:27.934Z,58.00
2023-05-18T16:07:54.272Z,57.30
2023-05-18T16:10:21.014Z,56.40
2023-05-18T16:12:48.049Z,56.30
2023-05-18T16:15:15.653Z,55.50
2023-05-18T16:17:42.017Z,54.00
2023-05-18T16:20:09.116Z,56.00
2023-05-18T16:22:35.351Z,56.20
2023-05-18T16:25:01.632Z,55.60
2023-05-18T16:27:27.889Z,57.10
2023-05-18T16:29:54.271Z,55.40
2023-05-18T16:32:20.492Z,59.30
2023-05-18T16:34:46.726Z,58.30
2023-05-18T16:37:12.939Z,58.20
2023-05-18T16:39:39.180Z,60.10
2023-05-18T16:42:07.361Z,60.60
2023-05-18T16:44:34.075Z,62.30
2023-05-18T16:47:02.586Z,62.60
2023-05-18T16:49:29.554Z,62.10
2023-05-18T16:51:55.826Z,64.10
2023-05-18T16:54:22.058Z,63.30
2023-05-18T16:56:49.300Z,64.60
2023-05-18T16:59:15.507Z,67.10
2023-05-18T17:01:41.705Z,64.10
2023-05-18T17:04:07.996Z,62.90
2023-05-18T17:06:34.409Z,61.00
2023-05-18T17:09:00.617Z,64.00
2023-05-18T17:11:27.170Z,66.30
2023-05-18T17:13:54.020Z,63.40
2023-05-18T17:16:21.469Z,63.30
2023-05-18T17:18:48.388Z,65.70
2023-05-18T17:21:15.276Z,66.80
2023-05-18T17:23:41.557Z,70.60
2023-05-18T17:26:08.001Z,70.00
2023-05-18T17:28:34.308Z,72.50
2023-05-18T17:31:00.581Z,71.40
2023-05-18T17:33:26.938Z,72.50
2023-05-18T17:35:53.282Z,74.40
2023-05-18T17:38:21.953Z,79.30
2023-05-18T17:40:48.287Z,74.00
2023-05-18T17:43:14.533Z,75.10
2023-05-18T17:45:41.374Z,73.60
2023-05-18T17:48:07.644Z,74.00
2023-05-18T17:50:37.157Z,74.00
2023-05-18T17:53:04.310Z,73.30
2023-05-18T17:55:30.571Z,74.70
2023-05-18T17:57:59.308Z,73.40
2023-05-18T18:00:25.599Z,73.60
2023-05-18T18:02:51.917Z,72.90
2023-05-18T18:05:18.531Z,74.00
2023-05-18T18:07:45.198Z,73.90
2023-05-18T18:10:11.904Z,75.60
2023-05-18T18:12:38.122Z,75.60
2023-05-18T18:15:04.961Z,75.00
2023-05-18T18:17:31.209Z,74.50
2023-05-18T18:19:58.160Z,76.20
2023-05-18T18:22:24.571Z,76.40
2023-05-18T18:24:51.311Z,78.00
2023-05-18T18:27:21.142Z,78.00
2023-05-18T18:29:48.624Z,77.80
2023-05-18T18:32:15.013Z,79.20
2023-05-18T18:34:42.728Z,80.90
2023-05-18T18:37:09.360Z,79.30
2023-05-18T18:39:36.065Z,82.10
2023-05-18T18:42:03.551Z,83.70
2023-05-18T18:44:32.091Z,85.30
2023-05-18T18:46:59.207Z,87.20
2023-05-18T18:49:25.554Z,87.90
2023-05-18T18:51:53.359Z,90.30
2023-05-18T18:54:22.821Z,90.40
2023-05-18T18:56:49.764Z,90.40
2023-05-18T18:59:16.393Z,91.30
2023-05-18T19:01:46.069Z,91.50
2023-05-18T19:04:12.646Z,91.40
2023-05-18T19:06:39.033Z,91.80
2023-05-18T19:09:05.557Z,91.90
2023-05-18T19:11:31.900Z,91.80
2023-05-18T19:13:58.227Z,92.10
2023-05-18T19:16:25.051Z,92.40
2023-05-18T19:18:51.930Z,92.30
2023-05-18T19:21:18.607Z,92.40
2023-05-18T19:23:45.506Z,92.50
2023-05-18T19:26:12.283Z,93.00
2023-05-18T19:28:38.611Z,93.10
2023-05-18T19:31:09.662Z,93.10
2023-05-18T19:33:35.991Z,93.00
2023-05-18T19:36:03.068Z,93.10
2023-05-18T19:38:29.520Z,93.60
2023-05-18T19:40:55.833Z,93.90
2023-05-18T19:43:22.056Z,94.30
2023-05-18T19:45:49.495Z,94.40
2023-05-18T19:48:17.719Z,94.80
2023-05-18T19:50:44.187Z,95.20
2023-05-18T19:53:10.862Z,95.60
2023-05-18T19:55:37.131Z,95.20
2023-05-18T19:58:03.987Z,97.70
2023-05-18T20:00:30.954Z,97.80
2023-05-18T20:02:57.521Z,97.50
2023-05-18T20:05:24.805Z,97.70
2023-05-18T20:07:51.585Z,98.00
2023-05-18T20:10:17.916Z,97.50
2023-05-18T20:12:44.336Z,99.50
2023-05-18T20:15:11.148Z,99.90
2023-05-18T20:17:40.582Z,99.90
2023-05-18T20:20:08.265Z,99.90
2023-05-18T20:22:35.159Z,99.90
2023-05-18T20:25:04.908Z,99.90
2023-05-18T20:27:31.358Z,99.90
2023-05-18T20:29:57.652Z,99.90
2023-05-18T20:32:24.038Z,99.90
2023-05-18T20:34:50.631Z,99.90
2023-05-18T20:37:19.905Z,99.90
2023-05-18T20:39:49.797Z,99.90
2023-05-18T20:42:29.475Z,99.90
2023-05-18T20:44:59.614Z,99.90
2023-05-18T20:47:33.658Z,99.90
2023-05-18T20:50:03.135Z,99.90
2023-05-18T20:52:30.480Z,99.90
2023-05-18T20:54:58.407Z,99.90
2023-05-18T20:57:27.931Z,99.90
2023-05-18T20:59:54.843Z,99.90
2023-05-18T21:02:21.200Z,99.90
2023-05-18T21:04:48.353Z,99.90
2023-05-18T21:07:17.478Z,99.90
2023-05-18T21:09:44.092Z,99.90
2023-05-18T21:12:11.222Z,99.90
2023-05-18T21:14:38.021Z,99.90
2023-05-18T21:17:05.030Z,99.90
2023-05-18T21:19:32.197Z,99.90
2023-05-18T21:21:59.168Z,99.90
2023-05-18T21:24:25.592Z,99.90
2023-05-18T21:26:53.494Z,99.90
2023-05-18T21:29:19.992Z,99.90
2023-05-18T21:31:46.341Z,99.90
2023-05-18T21:34:16.114Z,99.90
2023-05-18T21:36:42.851Z,99.90
2023-05-18T21:39:09.563Z,99.90
2023-05-18T21:41:39.715Z,99.90
2023-05-18T21:44:06.692Z,99.90
2023-05-18T21:46:36.334Z,99.90
2023-05-18T21:49:03.531Z,99.90
2023-05-18T21:51:32.944Z,99.90
2023-05-18T21:54:00.689Z,99.90
2023-05-18T21:56:27.610Z,99.90
2023-05-18T21:58:55.400Z,99.90
2023-05-18T22:01:23.659Z,99.90
2023-05-18T22:03:50.924Z,99.90
2023-05-18T22:06:20.160Z,99.90
2023-05-18T22:08:47.168Z,99.90
2023-05-18T22:11:13.391Z,99.90
2023-05-18T22:13:39.613Z,99.90
2023-05-18T22:16:06.320Z,99.90
2023-05-18T22:18:32.958Z,99.90
2023-05-18T22:20:59.591Z,99.90
2023-05-18T22:23:26.781Z,99.90
2023-05-18T22:25:56.582Z,99.90
2023-05-18T22:28:25.974Z,99.90
2023-05-18T22:30:52.236Z,99.90
2023-05-18T22:33:20.762Z,99.90
2023-05-18T22:35:49.869Z,99.90
2023-05-18T22:38:17.128Z,99.90
2023-05-18T22:40:54.186Z,99.90
2023-05-18T22:43:21.161Z,99.90
2023-05-18T22:45:47.452Z,99.90
2023-05-18T22:48:13.677Z,99.90
2023-05-18T22:50:39.877Z,99.90
2023-05-18T22:53:09.465Z,99.90
2023-05-18T22:55:35.688Z,99.90
2023-05-18T22:58:02.533Z,99.90
2023-05-18T23:00:29.329Z,99.90
2023-05-18T23:02:56.008Z,99.90
2023-05-18T23:05:22.491Z,99.90
2023-05-18T23:07:49.406Z,99.90
2023-05-18T23:10:15.784Z,99.90
2023-05-18T23:12:41.992Z,99.90
2023-05-18T23:15:10.029Z,99.90
2023-05-18T23:17:38.929Z,99.90
2023-05-18T23:20:06.853Z,99.90
2023-05-18T23:22:37.115Z,99.90
2023-05-18T23:25:07.785Z,99.90
2023-05-18T23:27:34.649Z,99.90
2023-05-18T23:30:00.878Z,99.90
2023-05-18T23:32:28.164Z,99.90
2023-05-18T23:34:58.840Z,99.90
2023-05-18T23:37:26.293Z,99.90
2023-05-18T23:39:53.400Z,99.90
2023-05-18T23:42:20.829Z,99.90
2023-05-18T23:44:47.727Z,99.90
2023-05-18T23:47:16.620Z,99.90
2023-05-18T23:49:43.542Z,99.90
2023-05-18T23:52:10.946Z,99.90
2023-05-18T23:54:38.016Z,99.90
2023-05-18T23:57:05.050Z,99.90
2023-05-18T23:59:32.335Z,99.90
